createdAt,value
2023-05-17T00:01:59.205Z,95129.75
2023-05-17T00:04:26.467Z,95117.19
2023-05-17T00:06:53.382Z,95137.63
2023-05-17T00:09:20.065Z,95116.19
2023-05-17T00:11:46.767Z,95119.03
2023-05-17T00:14:13.454Z,95148.59
2023-05-17T00:16:40.311Z,95133.19
2023-05-17T00:19:07.369Z,95128.75
2023-05-17T00:21:34.873Z,95147.75
2023-05-17T00:24:01.913Z,95113.78
2023-05-17T00:26:28.602Z,95128.97
2023-05-17T00:28:55.466Z,95125.50
2023-05-17T00:31:22.231Z,95156.66
2023-05-17T00:33:49.244Z,95133.22
2023-05-17T00:36:15.890Z,95108.53
2023-05-17T00:38:42.579Z,95113.78
2023-05-17T00:41:09.272Z,95104.91
2023-05-17T00:43:35.920Z,95121.47
2023-05-17T00:46:02.972Z,95110.13
2023-05-17T00:48:30.543Z,95110.56
2023-05-17T00:50:59.353Z,95105.31
2023-05-17T00:53:27.239Z,95117.84
2023-05-17T00:55:54.160Z,95113.38
2023-05-17T00:58:20.950Z,95113.41
2023-05-17T01:00:47.822Z,95096.63
2023-05-17T01:03:15.106Z,95103.88
2023-05-17T01:05:42.458Z,95098.84
2023-05-17T01:08:09.269Z,95105.69
2023-05-17T01:11:01.224Z,95116.22
2023-05-17T01:13:48.987Z,95120.47
2023-05-17T01:16:46.253Z,95129.38
2023-05-17T01:19:51.440Z,95120.28
2023-05-17T01:22:42.984Z,95118.41
2023-05-17T01:25:15.697Z,95110.75
2023-05-17T01:27:48.063Z,95116.22
2023-05-17T01:30:17.064Z,95105.69
2023-05-17T01:32:45.142Z,95112.75
2023-05-17T01:35:12.642Z,95110.75
2023-05-17T01:37:39.924Z,95119.44
2023-05-17T01:40:09.103Z,95115.81
2023-05-17T01:42:39.914Z,95111.16
2023-05-17T01:45:18.356Z,95117.03
2023-05-17T01:48:22.772Z,95098.84
2023-05-17T01:50:53.116Z,95112.56
2023-05-17T01:53:43.352Z,95110.97
2023-05-17T01:56:19.977Z,95102.84
2023-05-17T01:58:48.526Z,95106.69
2023-05-17T02:01:18.786Z,95108.91
2023-05-17T02:03:49.080Z,95117.44
2023-05-17T02:06:16.495Z,95119.06
2023-05-17T02:08:43.707Z,95112.00
2023-05-17T02:11:10.595Z,95132.41
2023-05-17T02:13:37.367Z,95105.13
2023-05-17T02:16:04.479Z,95134.84
2023-05-17T02:18:31.336Z,95110.56
2023-05-17T02:20:58.553Z,95108.34
2023-05-17T02:23:25.514Z,95114.63
2023-05-17T02:25:52.253Z,95105.31
2023-05-17T02:28:19.120Z,95109.34
2023-05-17T02:30:45.921Z,95104.91
2023-05-17T02:33:13.747Z,95117.88
2023-05-17T02:35:40.602Z,95100.84
2023-05-17T02:38:07.760Z,95108.34
2023-05-17T02:40:36.911Z,95111.59
2023-05-17T02:43:03.659Z,95098.44
2023-05-17T02:45:30.846Z,95091.75
2023-05-17T02:47:57.850Z,95085.06
2023-05-17T02:50:24.856Z,95094.00
2023-05-17T02:52:51.920Z,95097.81
2023-05-17T02:55:19.077Z,95116.63
2023-05-17T02:57:45.888Z,95097.84
2023-05-17T03:00:13.141Z,95102.09
2023-05-17T03:02:39.909Z,95092.78
2023-05-17T03:05:07.209Z,95091.16
2023-05-17T03:07:33.971Z,95073.75
2023-05-17T03:10:00.958Z,95096.63
2023-05-17T03:12:29.460Z,95101.69
2023-05-17T03:14:56.875Z,95093.19
2023-05-17T03:17:23.698Z,95095.22
2023-05-17T03:19:50.685Z,95099.06
2023-05-17T03:22:17.915Z,95086.31
2023-05-17T03:24:46.812Z,95093.78
2023-05-17T03:27:13.693Z,95095.59
2023-05-17T03:29:41.131Z,95093.00
2023-05-17T03:32:08.494Z,95099.06
2023-05-17T03:34:35.945Z,95106.50
2023-05-17T03:37:02.817Z,95104.09
2023-05-17T03:39:29.650Z,95114.59
2023-05-17T03:41:56.553Z,95115.44
2023-05-17T03:44:23.391Z,95112.41
2023-05-17T03:46:50.140Z,95116.06
2023-05-17T03:49:16.931Z,95118.84
2023-05-17T03:51:44.344Z,95118.69
2023-05-17T03:54:11.230Z,95127.53
2023-05-17T03:56:38.226Z,95117.25
2023-05-17T03:59:05.162Z,95112.59
2023-05-17T04:01:31.939Z,95119.06
2023-05-17T04:03:58.696Z,95125.91
2023-05-17T04:06:25.523Z,95138.25
2023-05-17T04:08:52.474Z,95122.72
2023-05-17T04:11:19.539Z,95129.56
2023-05-17T04:13:46.211Z,95113.81
2023-05-17T04:16:12.856Z,95130.41
2023-05-17T04:18:40.882Z,95124.13
2023-05-17T04:21:07.652Z,95137.06
2023-05-17T04:23:35.217Z,95122.13
2023-05-17T04:26:02.533Z,95149.41
2023-05-17T04:28:29.322Z,95124.94
2023-05-17T04:30:56.802Z,95124.53
2023-05-17T04:33:24.073Z,95138.28
2023-05-17T04:35:54.528Z,95133.81
2023-05-17T04:38:21.423Z,95152.44
2023-05-17T04:40:48.072Z,95159.50
2023-05-17T04:43:15.402Z,95143.34
2023-05-17T04:45:42.276Z,95150.03
2023-05-17T04:48:09.288Z,95126.94
2023-05-17T04:50:36.073Z,95150.00
2023-05-17T04:53:02.772Z,95144.13
2023-05-17T04:55:29.793Z,95132.41
2023-05-17T04:57:56.661Z,95155.47
2023-05-17T05:00:23.327Z,95136.47
2023-05-17T05:02:50.151Z,95173.88
2023-05-17T05:05:19.852Z,95138.09
2023-05-17T05:07:47.130Z,95140.72
2023-05-17T05:10:14.027Z,95149.00
2023-05-17T05:12:40.725Z,95139.09
2023-05-17T05:15:10.946Z,95144.16
2023-05-17T05:17:37.889Z,95162.34
2023-05-17T05:20:05.081Z,95153.84
2023-05-17T05:22:31.730Z,95147.81
2023-05-17T05:25:01.132Z,95170.44
2023-05-17T05:27:28.174Z,95167.59
2023-05-17T05:29:55.402Z,95151.63
2023-05-17T05:32:22.052Z,95166.59
2023-05-17T05:34:48.889Z,95164.75
2023-05-17T05:37:17.954Z,95171.44
2023-05-17T05:39:46.318Z,95168.81
2023-05-17T05:42:13.119Z,95155.06
2023-05-17T05:44:39.870Z,95166.38
2023-05-17T05:47:06.594Z,95167.53
2023-05-17T05:49:33.334Z,95162.91
2023-05-17T05:51:59.994Z,95170.84
2023-05-17T05:54:27.263Z,95181.13
2023-05-17T05:56:53.949Z,95187.03
2023-05-17T05:59:27.155Z,95180.97
2023-05-17T06:01:53.797Z,95170.00
2023-05-17T06:04:29.979Z,95178.91
2023-05-17T06:07:03.677Z,95181.72
2023-05-17T06:09:30.434Z,95184.97
2023-05-17T06:11:57.249Z,95171.19
2023-05-17T06:14:24.133Z,95209.47
2023-05-17T06:16:51.224Z,95177.69
2023-05-17T06:19:17.913Z,95169.84
2023-05-17T06:21:45.184Z,95180.53
2023-05-17T06:24:11.955Z,95179.91
2023-05-17T06:26:38.841Z,95176.50
2023-05-17T06:29:05.529Z,95183.34
2023-05-17T06:31:32.178Z,95175.88
2023-05-17T06:33:59.276Z,95188.34
2023-05-17T06:36:26.008Z,95177.34
2023-05-17T06:38:52.793Z,95198.38
2023-05-17T06:41:19.969Z,95204.34
2023-05-17T06:43:46.634Z,95189.06
2023-05-17T06:46:13.772Z,95188.63
2023-05-17T06:48:43.451Z,95190.94
2023-05-17T06:51:10.231Z,95198.22
2023-05-17T06:53:39.192Z,95198.69
2023-05-17T06:56:07.276Z,95199.25
2023-05-17T06:58:34.052Z,95182.94
2023-05-17T07:01:03.305Z,95197.31
2023-05-17T07:03:30.186Z,95197.91
2023-05-17T07:05:57.775Z,95210.50
2023-05-17T07:08:24.957Z,95186.63
2023-05-17T07:10:53.703Z,95201.59
2023-05-17T07:13:22.249Z,95193.28
2023-05-17T07:15:49.566Z,95195.91
2023-05-17T07:18:16.426Z,95235.03
2023-05-17T07:20:43.684Z,95223.28
2023-05-17T07:23:13.856Z,95205.66
2023-05-17T07:25:41.149Z,95197.09
2023-05-17T07:28:13.489Z,95209.53
2023-05-17T07:30:42.171Z,95204.34
2023-05-17T07:33:09.253Z,95217.69
2023-05-17T07:35:36.120Z,95212.28
2023-05-17T07:38:03.517Z,95222.06
2023-05-17T07:43:50.645Z,95215.31
2023-05-17T07:46:18.591Z,95215.59
2023-05-17T07:48:48.336Z,95214.97
2023-05-17T07:51:15.898Z,95217.84
2023-05-17T07:53:42.723Z,95222.78
2023-05-17T07:56:09.382Z,95219.28
2023-05-17T07:58:36.196Z,95238.38
2023-05-17T08:01:03.068Z,95236.34
2023-05-17T08:03:29.797Z,95259.06
2023-05-17T08:05:56.577Z,95227.06
2023-05-17T08:08:23.583Z,95229.44
2023-05-17T08:10:52.186Z,95223.09
2023-05-17T08:13:19.007Z,95240.63
2023-05-17T08:15:45.671Z,95241.38
2023-05-17T08:18:12.439Z,95227.75
2023-05-17T08:20:39.154Z,95239.84
2023-05-17T08:23:05.867Z,95234.41
2023-05-17T08:25:32.732Z,95215.19
2023-05-17T08:27:59.417Z,95255.66
2023-05-17T08:30:29.293Z,95253.28
2023-05-17T08:32:56.436Z,95263.75
2023-05-17T08:35:24.975Z,95240.03
2023-05-17T08:37:56.378Z,95260.69
2023-05-17T08:40:23.402Z,95245.69
2023-05-17T08:42:53.150Z,95252.47
2023-05-17T08:45:20.132Z,95244.03
2023-05-17T08:47:47.146Z,95250.41
2023-05-17T08:50:18.057Z,95246.66
2023-05-17T08:52:46.386Z,95250.31
2023-05-17T08:55:13.446Z,95243.75
2023-05-17T08:57:42.254Z,95253.19
2023-05-17T09:00:11.651Z,95270.47
2023-05-17T09:02:38.884Z,95252.13
2023-05-17T09:05:06.809Z,95275.78
2023-05-17T09:07:33.549Z,95265.53
2023-05-17T09:10:00.265Z,95262.66
2023-05-17T09:12:26.955Z,95256.81
2023-05-17T09:14:53.677Z,95261.72
2023-05-17T09:17:21.605Z,95266.75
2023-05-17T09:19:49.012Z,95264.91
2023-05-17T09:22:19.429Z,95258.59
2023-05-17T09:24:50.307Z,95305.66
2023-05-17T09:27:18.685Z,95272.00
2023-05-17T09:29:46.216Z,95265.69
2023-05-17T09:32:14.888Z,95260.00
2023-05-17T09:34:43.167Z,95264.19
2023-05-17T09:37:17.271Z,95275.84
2023-05-17T09:39:45.617Z,95282.16
2023-05-17T09:42:14.073Z,95283.59
2023-05-17T09:44:48.571Z,95267.91
2023-05-17T09:47:23.207Z,95273.72
2023-05-17T09:49:50.077Z,95275.94
2023-05-17T09:52:23.525Z,95282.69
2023-05-17T09:54:58.254Z,95273.56
2023-05-17T09:57:27.447Z,95281.66
2023-05-17T09:59:58.048Z,95276.69
2023-05-17T10:02:31.020Z,95291.16
2023-05-17T10:04:58.288Z,95313.47
2023-05-17T10:07:26.635Z,95288.66
2023-05-17T10:09:54.751Z,95290.88
2023-05-17T10:12:28.112Z,95295.44
2023-05-17T10:14:56.470Z,95321.34
2023-05-17T10:17:24.074Z,95299.22
2023-05-17T10:19:51.410Z,95295.56
2023-05-17T10:22:23.443Z,95287.66
2023-05-17T10:24:51.624Z,95297.53
2023-05-17T10:27:20.291Z,95298.72
2023-05-17T10:29:49.869Z,95297.41
2023-05-17T10:32:20.219Z,95319.03
2023-05-17T10:35:01.474Z,95291.53
2023-05-17T10:37:33.675Z,95289.63
2023-05-17T10:40:01.835Z,95290.88
2023-05-17T10:42:31.886Z,95285.69
2023-05-17T10:45:03.984Z,95289.03
2023-05-17T10:47:35.260Z,95298.81
2023-05-17T10:50:10.193Z,95281.75
2023-05-17T10:52:45.186Z,95276.34
2023-05-17T10:55:12.394Z,95269.34
2023-05-17T11:00:10.195Z,95272.84
2023-05-17T11:02:41.620Z,95279.59
2023-05-17T11:05:23.615Z,95286.72
2023-05-17T11:07:50.378Z,95284.34
2023-05-17T11:10:17.109Z,95301.34
2023-05-17T11:12:43.741Z,95295.88
2023-05-17T11:15:16.822Z,95302.66
2023-05-17T11:17:43.630Z,95311.47
2023-05-17T11:20:31.730Z,95306.63
2023-05-17T11:23:07.153Z,95285.16
2023-05-17T11:25:36.549Z,95325.75
2023-05-17T11:28:08.686Z,95283.63
2023-05-17T11:30:41.724Z,95274.28
2023-05-17T11:33:20.531Z,95284.81
2023-05-17T11:35:54.941Z,95293.25
2023-05-17T11:38:23.808Z,95305.44
2023-05-17T11:40:56.605Z,95291.97
2023-05-17T11:43:25.925Z,95297.41
2023-05-17T11:45:57.734Z,95310.31
2023-05-17T11:48:26.442Z,95305.72
2023-05-17T11:51:02.408Z,95315.84
2023-05-17T11:53:31.550Z,95301.72
2023-05-17T11:56:03.170Z,95361.47
2023-05-17T11:58:33.986Z,95293.53
2023-05-17T12:01:00.788Z,95288.00
2023-05-17T12:03:31.672Z,95292.81
2023-05-17T12:06:08.680Z,95275.53
2023-05-17T12:08:37.994Z,95284.59
2023-05-17T12:11:07.511Z,95298.03
2023-05-17T12:13:35.389Z,95306.63
2023-05-17T12:16:11.324Z,95300.25
2023-05-17T12:18:58.434Z,95319.22
2023-05-17T12:21:25.348Z,95300.28
2023-05-17T12:23:53.185Z,95290.44
2023-05-17T12:26:22.073Z,95303.47
2023-05-17T12:28:55.839Z,95302.25
2023-05-17T12:31:30.123Z,95296.31
2023-05-17T12:33:58.158Z,95298.75
2023-05-17T12:36:28.638Z,95299.13
2023-05-17T12:38:56.772Z,95288.22
2023-05-17T12:41:25.705Z,95299.38
2023-05-17T12:43:57.188Z,95306.41
2023-05-17T12:46:33.866Z,95319.03
2023-05-17T12:49:08.422Z,95289.66
2023-05-17T12:51:45.811Z,95294.88
2023-05-17T12:54:15.079Z,95311.81
2023-05-17T12:56:43.052Z,95289.47
2023-05-17T12:59:17.594Z,95275.66
2023-05-17T13:01:46.735Z,95269.06
2023-05-17T13:04:15.328Z,95271.41
2023-05-17T13:06:49.489Z,95275.41
2023-05-17T13:09:26.841Z,95278.28
2023-05-17T13:11:56.301Z,95296.88
2023-05-17T13:14:46.588Z,95301.13
2023-05-17T13:17:24.591Z,95289.25
2023-05-17T13:19:53.971Z,95285.56
2023-05-17T13:22:20.864Z,95297.31
2023-05-17T13:24:47.630Z,95284.53
2023-05-17T13:27:14.618Z,95277.03
2023-05-17T13:29:43.298Z,95294.22
2023-05-17T13:32:15.618Z,95269.56
2023-05-17T13:34:42.471Z,95288.84
2023-05-17T13:37:12.156Z,95284.88
2023-05-17T13:39:41.317Z,95297.59
2023-05-17T13:42:08.431Z,95276.41
2023-05-17T13:44:35.249Z,95316.78
2023-05-17T13:47:02.104Z,95283.22
2023-05-17T13:49:28.854Z,95280.13
2023-05-17T13:51:55.616Z,95306.31
2023-05-17T13:54:25.445Z,95272.06
2023-05-17T13:56:52.260Z,95264.00
2023-05-17T13:59:18.990Z,95268.72
2023-05-17T14:01:45.913Z,95276.44
2023-05-17T14:04:12.793Z,95260.44
2023-05-17T14:06:39.590Z,95278.19
2023-05-17T14:09:06.329Z,95274.38
2023-05-17T14:11:33.654Z,95285.22
2023-05-17T14:14:00.368Z,95281.97
2023-05-17T14:16:27.078Z,95282.69
2023-05-17T14:18:53.838Z,95281.94
2023-05-17T14:21:20.648Z,95295.13
2023-05-17T14:23:47.385Z,95277.72
2023-05-17T14:26:16.147Z,95280.84
2023-05-17T14:28:42.873Z,95272.28
2023-05-17T14:31:10.012Z,95290.16
2023-05-17T14:33:36.902Z,95264.72
2023-05-17T14:36:03.856Z,95261.22
2023-05-17T14:38:30.930Z,95277.63
2023-05-17T14:40:58.535Z,95264.13
2023-05-17T14:43:25.348Z,95262.41
2023-05-17T14:45:52.157Z,95276.69
2023-05-17T14:48:19.985Z,95261.69
2023-05-17T14:50:46.760Z,95270.47
2023-05-17T14:53:13.684Z,95269.88
2023-05-17T14:55:40.390Z,95268.38
2023-05-17T14:58:07.074Z,95259.28
2023-05-17T15:00:33.736Z,95287.63
2023-05-17T15:03:00.488Z,95249.63
2023-05-17T15:05:27.807Z,95264.47
2023-05-17T15:07:54.788Z,95280.34
2023-05-17T15:10:21.550Z,95262.34
2023-05-17T15:12:48.253Z,95268.03
2023-05-17T15:15:14.948Z,95279.91
2023-05-17T15:17:41.708Z,95276.66
2023-05-17T15:20:09.200Z,95263.31
2023-05-17T15:22:36.045Z,95276.22
2023-05-17T15:25:02.747Z,95249.13
2023-05-17T15:27:29.361Z,95262.50
2023-05-17T15:29:56.299Z,95259.06
2023-05-17T15:32:23.049Z,95257.19
2023-05-17T15:34:49.793Z,95258.72
2023-05-17T15:37:16.572Z,95281.53
2023-05-17T15:39:43.281Z,95277.38
2023-05-17T15:42:09.954Z,95275.56
2023-05-17T15:44:36.725Z,95272.56
2023-05-17T15:47:03.710Z,95261.47
2023-05-17T15:49:30.508Z,95263.56
2023-05-17T15:51:57.286Z,95263.91
2023-05-17T15:54:24.018Z,95279.31
2023-05-17T15:56:51.060Z,95286.38
2023-05-17T15:59:17.716Z,95270.72
2023-05-17T16:01:44.449Z,95270.69
2023-05-17T16:04:11.191Z,95256.50
2023-05-17T16:06:37.972Z,95275.63
2023-05-17T16:09:04.807Z,95274.00
2023-05-17T16:11:31.512Z,95273.72
2023-05-17T16:13:58.226Z,95253.06
2023-05-17T16:16:24.865Z,95284.63
2023-05-17T16:18:51.685Z,95277.56
2023-05-17T16:21:18.382Z,95280.66
2023-05-17T16:23:45.112Z,95269.66
2023-05-17T16:26:11.890Z,95268.47
2023-05-17T16:28:38.643Z,95280.25
2023-05-17T16:31:05.638Z,95266.75
2023-05-17T16:33:32.804Z,95274.03
2023-05-17T16:35:59.594Z,95254.16
2023-05-17T16:38:26.276Z,95259.88
2023-05-17T16:40:53.305Z,95262.16
2023-05-17T16:43:21.001Z,95267.25
2023-05-17T16:45:47.932Z,95263.91
2023-05-17T16:48:15.364Z,95257.97
2023-05-17T16:50:44.935Z,95267.63
2023-05-17T16:53:14.450Z,95265.91
2023-05-17T16:55:41.290Z,95258.72
2023-05-17T16:58:08.615Z,95252.38
2023-05-17T17:00:37.565Z,95264.00
2023-05-17T17:03:07.314Z,95255.72
2023-05-17T17:05:35.852Z,95278.41
2023-05-17T17:08:05.104Z,95260.59
2023-05-17T17:10:32.075Z,95261.47
2023-05-17T17:12:58.940Z,95254.91
2023-05-17T17:15:25.591Z,95251.91
2023-05-17T17:17:52.409Z,95257.25
2023-05-17T17:20:19.275Z,95259.44
2023-05-17T17:22:48.994Z,95248.78
2023-05-17T17:25:15.714Z,95256.97
2023-05-17T17:27:42.450Z,95252.75
2023-05-17T17:30:11.348Z,95248.75
2023-05-17T17:32:38.086Z,95249.66
2023-05-17T17:35:05.210Z,95256.97
2023-05-17T17:37:31.884Z,95246.91
2023-05-17T17:39:58.587Z,95261.97
2023-05-17T17:42:25.562Z,95257.38
2023-05-17T17:44:53.358Z,95256.53
2023-05-17T17:47:20.267Z,95261.81
2023-05-17T17:49:47.003Z,95264.13
2023-05-17T17:52:13.674Z,95263.97
2023-05-17T17:54:41.303Z,95268.72
2023-05-17T17:57:07.987Z,95258.34
2023-05-17T17:59:34.670Z,95258.47
2023-05-17T18:02:01.341Z,95259.00
2023-05-17T18:04:28.091Z,95265.19
2023-05-17T18:06:55.858Z,95265.34
2023-05-17T18:09:23.366Z,95263.38
2023-05-17T18:11:50.039Z,95277.41
2023-05-17T18:14:16.676Z,95270.94
2023-05-17T18:16:43.525Z,95263.28
2023-05-17T18:19:12.158Z,95259.53
2023-05-17T18:21:38.926Z,95255.84
2023-05-17T18:24:05.825Z,95255.41
2023-05-17T18:26:32.602Z,95260.63
2023-05-17T18:28:59.880Z,95260.97
2023-05-17T18:31:26.622Z,95268.31
2023-05-17T18:33:55.643Z,95259.03
2023-05-17T18:36:23.804Z,95251.56
2023-05-17T18:38:50.482Z,95259.97
2023-05-17T18:41:17.305Z,95244.28
2023-05-17T18:43:44.110Z,95245.09
2023-05-17T18:46:10.781Z,95238.28
2023-05-17T18:48:37.484Z,95244.38
2023-05-17T18:51:04.257Z,95244.28
2023-05-17T18:53:30.920Z,95247.31
2023-05-17T18:55:57.987Z,95253.75
2023-05-17T18:58:25.781Z,95257.13
2023-05-17T19:00:52.551Z,95254.88
2023-05-17T19:03:19.238Z,95260.59
2023-05-17T19:05:45.997Z,95261.59
2023-05-17T19:08:12.719Z,95270.84
2023-05-17T19:10:39.540Z,95253.06
2023-05-17T19:13:06.420Z,95257.94
2023-05-17T19:15:33.158Z,95274.47
2023-05-17T19:17:59.939Z,95261.03
2023-05-17T19:20:26.608Z,95255.88
2023-05-17T19:22:53.260Z,95269.38
2023-05-17T19:25:21.058Z,95258.66
2023-05-17T19:27:47.987Z,95263.44
2023-05-17T19:30:14.727Z,95264.75
2023-05-17T19:32:41.411Z,95263.97
2023-05-17T19:35:08.619Z,95252.50
2023-05-17T19:37:35.421Z,95261.16
2023-05-17T19:40:03.672Z,95251.56
2023-05-17T19:42:30.378Z,95256.78
2023-05-17T19:44:57.092Z,95262.81
2023-05-17T19:47:23.962Z,95265.13
2023-05-17T19:49:50.706Z,95263.53
2023-05-17T19:52:17.416Z,95273.84
2023-05-17T19:54:44.116Z,95293.91
2023-05-17T19:57:10.790Z,95289.06
2023-05-17T19:59:37.468Z,95278.34
2023-05-17T20:02:06.763Z,95287.16
2023-05-17T20:04:33.508Z,95288.19
2023-05-17T20:07:00.167Z,95303.25
2023-05-17T20:09:27.051Z,95286.28
2023-05-17T20:11:53.884Z,95281.75
2023-05-17T20:14:20.581Z,95297.59
2023-05-17T20:16:47.404Z,95297.13
2023-05-17T20:19:14.188Z,95297.59
2023-05-17T20:21:40.974Z,95293.97
2023-05-17T20:24:07.856Z,95297.56
2023-05-17T20:26:34.528Z,95299.09
2023-05-17T20:29:01.154Z,95307.59
2023-05-17T20:31:27.797Z,95299.91
2023-05-17T20:33:54.441Z,95312.09
2023-05-17T20:36:21.328Z,95313.84
2023-05-17T20:38:47.965Z,95306.75
2023-05-17T20:41:14.631Z,95300.19
2023-05-17T20:43:46.890Z,95329.63
2023-05-17T20:46:13.923Z,95305.03
2023-05-17T20:48:43.404Z,95311.19
2023-05-17T20:51:10.625Z,95307.41
2023-05-17T20:53:38.714Z,95316.47
2023-05-17T20:56:06.899Z,95309.66
2023-05-17T20:58:33.836Z,95295.38
2023-05-17T21:01:00.807Z,95300.31
2023-05-17T21:03:28.779Z,95299.38
2023-05-17T21:05:55.708Z,95292.81
2023-05-17T21:08:23.049Z,95311.75
2023-05-17T21:10:49.970Z,95299.63
2023-05-17T21:13:16.753Z,95292.75
2023-05-17T21:15:43.865Z,95283.53
2023-05-17T21:18:11.543Z,95286.81
2023-05-17T21:20:39.275Z,95289.09
2023-05-17T21:23:06.182Z,95289.31
2023-05-17T21:25:33.149Z,95287.28
2023-05-17T21:28:08.306Z,95281.97
2023-05-17T21:30:35.382Z,95295.00
2023-05-17T21:33:02.270Z,95284.88
2023-05-17T21:35:29.025Z,95281.84
2023-05-17T21:37:58.442Z,95277.53
2023-05-17T21:40:25.155Z,95286.75
2023-05-17T21:42:51.830Z,95281.06
2023-05-17T21:45:18.517Z,95278.03
2023-05-17T21:47:45.398Z,95287.78
2023-05-17T21:50:12.097Z,95291.78
2023-05-17T21:52:38.806Z,95283.50
2023-05-17T21:55:09.966Z,95281.03
2023-05-17T21:57:36.832Z,95287.56
2023-05-17T22:00:05.848Z,95279.28
2023-05-17T22:02:34.766Z,95281.72
2023-05-17T22:05:01.876Z,95284.81
2023-05-17T22:07:28.920Z,95281.34
2023-05-17T22:09:55.688Z,95282.13
2023-05-17T22:12:22.517Z,95284.41
2023-05-17T22:14:49.349Z,95288.28
2023-05-17T22:17:16.051Z,95288.34
2023-05-17T22:19:42.736Z,95285.09
2023-05-17T22:22:09.387Z,95278.56
2023-05-17T22:24:36.041Z,95284.69
2023-05-17T22:27:03.853Z,95284.69
2023-05-17T22:29:30.620Z,95273.38
2023-05-17T22:31:57.300Z,95285.53
2023-05-17T22:34:24.073Z,95267.31
2023-05-17T22:36:50.742Z,95279.13
2023-05-17T22:39:17.432Z,95268.19
2023-05-17T22:41:44.098Z,95277.44
2023-05-17T22:44:10.754Z,95274.03
2023-05-17T22:46:38.382Z,95257.25
2023-05-17T22:49:05.124Z,95260.69
2023-05-17T22:51:31.808Z,95261.31
2023-05-17T22:53:58.451Z,95276.75
2023-05-17T22:56:25.112Z,95261.75
2023-05-17T22:58:51.926Z,95271.06
2023-05-17T23:01:18.788Z,95264.78
2023-05-17T23:03:45.656Z,95266.84
2023-05-17T23:06:12.471Z,95273.97
2023-05-17T23:08:39.150Z,95258.91
2023-05-17T23:11:05.817Z,95259.34
2023-05-17T23:13:32.446Z,95257.94
2023-05-17T23:15:59.104Z,95270.53
2023-05-17T23:18:25.793Z,95284.13
2023-05-17T23:20:52.470Z,95267.91
2023-05-17T23:23:19.112Z,95257.56
2023-05-17T23:25:45.902Z,95266.31
2023-05-17T23:28:12.530Z,95262.03
2023-05-17T23:30:39.252Z,95266.31
2023-05-17T23:33:05.968Z,95265.50
2023-05-17T23:35:32.650Z,95253.75
2023-05-17T23:37:59.312Z,95249.88
2023-05-17T23:40:26.022Z,95256.59
2023-05-17T23:42:52.752Z,95258.59
2023-05-17T23:45:19.516Z,95249.31
2023-05-17T23:47:46.212Z,95262.47
2023-05-17T23:50:13.547Z,95236.94
2023-05-17T23:52:40.202Z,95244.44
2023-05-17T23:55:07.766Z,95238.16
2023-05-17T23:57:35.002Z,95232.09
